Time;durP1;ratioP1;P1;durP2;ratioP2;P2;SDS_P1;SDS_P2;PMS_P1;PMS_P2;Temp;Humidity;BMP_temperature;BMP_pressure;BME280_temperature;BME280_humidity;BME280_pressure;Samples;Min_cycle;Max_cycle;Signal;HPM_P1;HPM_P2
2020/12/01 00:01:08;;;;;;;;;;;19.60;40.70;;;;;;491825;240;1199;-75
2020/12/01 00:03:09;;;;;;;;;;;19.60;40.70;;;;;;491782;240;1128;-75
2020/12/01 00:05:10;;;;;;;;;;;19.60;40.80;;;;;;491790;240;1198;-75
2020/12/01 00:07:12;;;;;;;;;;;19.60;40.70;;;;;;491763;240;962;-75
2020/12/01 00:09:13;;;;;;;;;;;19.60;40.80;;;;;;491795;240;913;-75
2020/12/01 00:11:15;;;;;;;;;;;19.60;40.70;;;;;;491769;240;941;-75
2020/12/01 00:13:16;;;;;;;;;;;19.60;39.70;;;;;;491756;240;954;-75
2020/12/01 00:15:17;;;;;;;;;;;19.60;40.80;;;;;;491824;239;2200;-75
2020/12/01 00:17:18;;;;;;;;;;;19.60;40.80;;;;;;491867;240;1197;-75
2020/12/01 00:19:20;;;;;;;;;;;19.60;40.80;;;;;;491811;240;1074;-75
2020/12/01 00:21:21;;;;;;;;;;;19.60;40.70;;;;;;491768;240;946;-75
2020/12/01 00:23:22;;;;;;;;;;;19.70;40.80;;;;;;491804;240;1078;-75
2020/12/01 00:25:24;;;;;;;;;;;19.60;40.70;;;;;;491774;240;1083;-75
2020/12/01 00:27:25;;;;;;;;;;;19.60;40.70;;;;;;491758;240;1139;-75
2020/12/01 00:29:26;;;;;;;;;;;19.60;40.70;;;;;;491798;240;964;-75
2020/12/01 00:31:27;;;;;;;;;;;19.60;40.70;;;;;;491791;240;1105;-75
2020/12/01 00:33:29;;;;;;;;;;;19.70;40.70;;;;;;491790;240;1061;-75
2020/12/01 00:35:30;;;;;;;;;;;19.70;40.70;;;;;;491772;240;2179;-75
2020/12/01 00:37:31;;;;;;;;;;;19.70;40.60;;;;;;491818;240;1014;-75
2020/12/01 00:39:33;;;;;;;;;;;19.70;40.60;;;;;;491771;240;1014;-75
2020/12/01 00:41:34;;;;;;;;;;;19.70;40.60;;;;;;491779;240;966;-75
2020/12/01 00:43:35;;;;;;;;;;;19.70;40.00;;;;;;491792;240;978;-75
2020/12/01 00:45:36;;;;;;;;;;;19.60;40.30;;;;;;491781;240;1144;-75
2020/12/01 00:47:38;;;;;;;;;;;19.70;40.60;;;;;;491794;240;1060;-75
2020/12/01 00:49:39;;;;;;;;;;;19.60;40.70;;;;;;491821;240;1198;-75
2020/12/01 00:51:40;;;;;;;;;;;19.60;40.60;;;;;;491787;240;958;-75
2020/12/01 00:53:42;;;;;;;;;;;19.70;40.70;;;;;;491734;240;962;-75
2020/12/01 00:55:43;;;;;;;;;;;19.60;40.50;;;;;;491773;240;2203;-75
2020/12/01 00:57:44;;;;;;;;;;;19.60;40.50;;;;;;491788;240;1087;-75
2020/12/01 00:59:45;;;;;;;;;;;19.60;40.40;;;;;;491801;240;1018;-75
2020/12/01 01:01:47;;;;;;;;;;;19.60;40.50;;;;;;491741;240;1188;-75
2020/12/01 01:03:48;;;;;;;;;;;19.60;40.50;;;;;;491847;240;1053;-75
2020/12/01 01:05:49;;;;;;;;;;;19.60;39.70;;;;;;491796;240;946;-75
2020/12/01 01:07:50;;;;;;;;;;;19.60;40.40;;;;;;491777;240;957;-76
2020/12/01 01:09:52;;;;;;;;;;;19.70;40.50;;;;;;491831;240;958;-75
2020/12/01 01:11:53;;;;;;;;;;;19.70;40.50;;;;;;491801;240;949;-75
2020/12/01 01:13:54;;;;;;;;;;;19.60;40.40;;;;;;491869;240;1030;-75
2020/12/01 01:15:56;;;;;;;;;;;19.60;40.50;;;;;;491783;240;2179;-75
2020/12/01 01:17:57;;;;;;;;;;;19.60;40.40;;;;;;491791;240;1022;-75
2020/12/01 01:19:58;;;;;;;;;;;19.60;40.40;;;;;;491826;240;938;-75
2020/12/01 01:21:59;;;;;;;;;;;19.60;40.50;;;;;;491813;240;997;-75
2020/12/01 01:24:01;;;;;;;;;;;19.60;40.50;;;;;;491764;240;976;-75
2020/12/01 01:26:02;;;;;;;;;;;19.60;40.40;;;;;;491794;240;985;-75
2020/12/01 01:28:03;;;;;;;;;;;19.60;40.40;;;;;;491831;240;1161;-75
2020/12/01 01:30:05;;;;;;;;;;;19.60;40.30;;;;;;491833;240;944;-75
2020/12/01 01:32:06;;;;;;;;;;;19.60;40.40;;;;;;491812;240;1199;-75
2020/12/01 01:34:07;;;;;;;;;;;19.60;40.40;;;;;;491842;240;919;-75
2020/12/01 01:36:08;;;;;;;;;;;19.60;40.40;;;;;;491828;240;2192;-75
2020/12/01 01:38:10;;;;;;;;;;;19.60;40.50;;;;;;491839;240;959;-75
2020/12/01 01:40:11;;;;;;;;;;;19.60;40.70;;;;;;491804;240;1030;-75
2020/12/01 01:42:13;;;;;;;;;;;19.60;40.80;;;;;;491757;240;950;-75
2020/12/01 01:44:14;;;;;;;;;;;19.50;40.70;;;;;;491785;240;1475;-75
2020/12/01 01:46:15;;;;;;;;;;;19.50;40.70;;;;;;491749;240;1210;-75
2020/12/01 01:48:16;;;;;;;;;;;19.50;40.70;;;;;;491782;240;982;-75
2020/12/01 01:50:18;;;;;;;;;;;19.50;40.60;;;;;;491760;240;968;-75
2020/12/01 01:52:19;;;;;;;;;;;19.60;40.80;;;;;;491829;240;1054;-75
2020/12/01 01:54:20;;;;;;;;;;;19.50;40.90;;;;;;491823;240;939;-75
2020/12/01 01:56:22;;;;;;;;;;;19.60;40.80;;;;;;491749;240;2204;-75
2020/12/01 01:58:23;;;;;;;;;;;19.60;40.80;;;;;;491842;240;936;-75
2020/12/01 02:00:35;;;;;;;;;;;19.50;40.80;;;;;;491771;240;1102;-75
2020/12/01 02:02:26;;;;;;;;;;;19.60;40.90;;;;;;491865;240;1421;-75
2020/12/01 02:04:27;;;;;;;;;;;19.50;40.80;;;;;;491779;240;1256;-75
2020/12/01 02:06:28;;;;;;;;;;;19.50;40.90;;;;;;491821;240;948;-75
2020/12/01 02:08:31;;;;;;;;;;;19.50;40.90;;;;;;491810;240;1058;-75
2020/12/01 02:10:32;;;;;;;;;;;19.50;41.00;;;;;;491838;240;1143;-75
2020/12/01 02:12:34;;;;;;;;;;;19.50;40.80;;;;;;491802;240;1065;-75
2020/12/01 02:14:35;;;;;;;;;;;19.50;40.30;;;;;;491773;240;1186;-75
2020/12/01 02:16:36;;;;;;;;;;;19.50;41.10;;;;;;491752;240;2175;-75
2020/12/01 02:18:37;;;;;;;;;;;19.50;41.10;;;;;;491748;240;1108;-75
2020/12/01 02:20:39;;;;;;;;;;;19.50;41.00;;;;;;491786;240;1369;-75
2020/12/01 02:22:40;;;;;;;;;;;19.50;40.90;;;;;;491769;240;1574;-75
2020/12/01 02:24:41;;;;;;;;;;;19.40;40.90;;;;;;491832;240;1040;-75
2020/12/01 02:26:43;;;;;;;;;;;19.50;41.00;;;;;;491749;240;1097;-75
2020/12/01 02:28:44;;;;;;;;;;;19.40;40.90;;;;;;491793;240;1015;-75
2020/12/01 02:30:45;;;;;;;;;;;19.40;40.80;;;;;;491743;240;1219;-75
2020/12/01 02:32:46;;;;;;;;;;;19.50;40.80;;;;;;491753;240;1218;-75
2020/12/01 02:34:48;;;;;;;;;;;19.50;40.70;;;;;;491772;240;1035;-75
2020/12/01 02:36:49;;;;;;;;;;;19.50;40.70;;;;;;491803;240;2200;-75
2020/12/01 02:38:50;;;;;;;;;;;19.50;40.70;;;;;;491783;240;1151;-75
2020/12/01 02:40:52;;;;;;;;;;;19.50;40.80;;;;;;491759;240;1016;-75
2020/12/01 02:42:53;;;;;;;;;;;19.50;40.30;;;;;;491785;240;943;-75
2020/12/01 02:44:54;;;;;;;;;;;19.60;40.60;;;;;;491744;240;952;-75
2020/12/01 02:46:55;;;;;;;;;;;19.50;40.70;;;;;;491816;240;1173;-75
2020/12/01 02:48:57;;;;;;;;;;;19.50;40.70;;;;;;491830;240;1005;-75
2020/12/01 02:50:58;;;;;;;;;;;19.60;40.60;;;;;;491831;240;1042;-75
2020/12/01 02:52:59;;;;;;;;;;;19.50;40.60;;;;;;491811;240;950;-76
2020/12/01 02:55:01;;;;;;;;;;;19.50;40.70;;;;;;491795;240;953;-75
2020/12/01 02:57:02;;;;;;;;;;;19.50;40.70;;;;;;491734;240;2176;-75
2020/12/01 02:59:03;;;;;;;;;;;19.40;40.70;;;;;;491801;240;1098;-75
2020/12/01 03:01:04;;;;;;;;;;;19.50;40.70;;;;;;491737;240;1122;-75
2020/12/01 03:03:06;;;;;;;;;;;19.50;40.70;;;;;;491789;240;1151;-75
2020/12/01 03:05:07;;;;;;;;;;;19.40;40.60;;;;;;491738;240;1174;-76
2020/12/01 03:07:08;;;;;;;;;;;19.50;40.60;;;;;;491799;240;1106;-75
2020/12/01 03:09:10;;;;;;;;;;;19.50;40.60;;;;;;491843;240;1062;-75
2020/12/01 03:11:11;;;;;;;;;;;19.50;40.60;;;;;;491974;240;1050;-75
2020/12/01 03:13:12;;;;;;;;;;;19.50;40.50;;;;;;491838;240;1046;-75
2020/12/01 03:15:15;;;;;;;;;;;19.50;40.50;;;;;;491778;240;1158;-75
2020/12/01 03:17:15;;;;;;;;;;;19.50;39.30;;;;;;491747;240;2204;-75
2020/12/01 03:19:16;;;;;;;;;;;19.50;40.70;;;;;;491812;240;1027;-75
2020/12/01 03:21:17;;;;;;;;;;;19.40;40.70;;;;;;491719;240;1123;-75
2020/12/01 03:23:19;;;;;;;;;;;19.50;40.70;;;;;;491790;240;1150;-75
2020/12/01 03:25:20;;;;;;;;;;;19.40;40.50;;;;;;491749;240;1213;-75
2020/12/01 03:27:21;;;;;;;;;;;19.50;40.50;;;;;;491855;240;1058;-75
2020/12/01 03:29:23;;;;;;;;;;;19.50;40.50;;;;;;491884;240;1067;-75
2020/12/01 03:31:24;;;;;;;;;;;19.40;40.70;;;;;;491777;240;1235;-75
2020/12/01 03:33:25;;;;;;;;;;;19.40;40.60;;;;;;491814;240;1122;-75
2020/12/01 03:35:27;;;;;;;;;;;19.40;40.60;;;;;;491836;240;2203;-75
2020/12/01 03:37:28;;;;;;;;;;;19.50;40.70;;;;;;491851;240;1077;-75
2020/12/01 03:39:30;;;;;;;;;;;19.50;40.60;;;;;;491802;240;1069;-75
2020/12/01 03:41:31;;;;;;;;;;;19.50;40.60;;;;;;491862;240;948;-75
2020/12/01 03:43:32;;;;;;;;;;;19.50;40.60;;;;;;491876;240;1085;-75
2020/12/01 03:45:34;;;;;;;;;;;19.50;40.60;;;;;;491825;240;1225;-75
2020/12/01 03:47:35;;;;;;;;;;;19.50;39.80;;;;;;491821;240;1294;-75
2020/12/01 03:49:36;;;;;;;;;;;19.50;40.50;;;;;;491845;240;930;-75
2020/12/01 03:51:37;;;;;;;;;;;19.40;40.60;;;;;;491810;240;999;-75
2020/12/01 03:53:39;;;;;;;;;;;19.50;40.70;;;;;;491853;240;927;-75
2020/12/01 03:55:40;;;;;;;;;;;19.50;40.70;;;;;;491835;240;2165;-75
2020/12/01 03:57:41;;;;;;;;;;;19.40;40.60;;;;;;491802;240;1113;-75
2020/12/01 03:59:43;;;;;;;;;;;19.40;40.70;;;;;;491837;240;955;-75
2020/12/01 04:01:44;;;;;;;;;;;19.50;40.70;;;;;;491774;240;1043;-75
2020/12/01 04:03:45;;;;;;;;;;;19.40;40.70;;;;;;491854;240;1233;-75
2020/12/01 04:05:47;;;;;;;;;;;19.40;40.80;;;;;;491831;240;967;-75
2020/12/01 04:07:48;;;;;;;;;;;19.40;40.70;;;;;;491799;240;962;-75
2020/12/01 04:09:50;;;;;;;;;;;19.40;40.70;;;;;;491803;240;986;-75
2020/12/01 04:11:51;;;;;;;;;;;19.50;40.70;;;;;;491801;240;995;-75
2020/12/01 04:13:52;;;;;;;;;;;19.50;40.50;;;;;;491809;240;1082;-75
2020/12/01 04:15:53;;;;;;;;;;;19.60;40.50;;;;;;491779;240;2197;-75
2020/12/01 04:17:55;;;;;;;;;;;19.50;40.50;;;;;;491828;240;1158;-75
2020/12/01 04:19:56;;;;;;;;;;;19.40;40.10;;;;;;491857;240;1027;-75
2020/12/01 04:21:57;;;;;;;;;;;19.40;40.70;;;;;;491879;240;1042;-75
2020/12/01 04:23:59;;;;;;;;;;;19.50;40.70;;;;;;491793;240;988;-75
2020/12/01 04:26:00;;;;;;;;;;;19.40;40.70;;;;;;491852;240;1240;-75
2020/12/01 04:28:05;;;;;;;;;;;19.40;40.60;;;;;;491831;240;939;-75
2020/12/01 04:30:02;;;;;;;;;;;19.50;40.70;;;;;;491979;240;1409;-75
2020/12/01 04:32:04;;;;;;;;;;;19.50;40.50;;;;;;491799;240;1036;-75
2020/12/01 04:34:05;;;;;;;;;;;19.60;40.40;;;;;;491793;240;1216;-75
2020/12/01 04:36:06;;;;;;;;;;;19.50;40.40;;;;;;491802;240;2196;-75
2020/12/01 04:38:08;;;;;;;;;;;19.50;40.40;;;;;;491809;240;1053;-75
2020/12/01 04:40:09;;;;;;;;;;;19.50;40.50;;;;;;491810;240;1117;-75
2020/12/01 04:42:10;;;;;;;;;;;19.50;40.40;;;;;;491787;240;997;-75
2020/12/01 04:44:11;;;;;;;;;;;19.40;40.40;;;;;;491774;240;1127;-75
2020/12/01 04:46:13;;;;;;;;;;;19.50;39.70;;;;;;491791;240;1065;-75
2020/12/01 04:48:14;;;;;;;;;;;19.40;40.60;;;;;;491787;240;1305;-75
2020/12/01 04:50:15;;;;;;;;;;;19.40;40.60;;;;;;491778;240;1102;-75
2020/12/01 04:52:17;;;;;;;;;;;19.50;40.60;;;;;;491762;240;1121;-75
2020/12/01 04:54:18;;;;;;;;;;;19.50;40.30;;;;;;491760;240;1463;-75
2020/12/01 04:56:19;;;;;;;;;;;19.60;39.30;;;;;;491739;240;2187;-75
2020/12/01 04:58:21;;;;;;;;;;;19.50;40.40;;;;;;491740;240;1060;-75
2020/12/01 05:00:22;;;;;;;;;;;19.60;40.30;;;;;;491763;240;1191;-75
2020/12/01 05:02:24;;;;;;;;;;;19.60;40.50;;;;;;491627;240;1060;-75
2020/12/01 05:04:27;;;;;;;;;;;19.50;40.40;;;;;;491707;240;1197;-75
2020/12/01 05:06:35;;;;;;;;;;;19.50;40.40;;;;;;491588;240;1402;-75
2020/12/01 05:08:31;;;;;;;;;;;19.40;40.50;;;;;;491637;240;1413;-75
2020/12/01 05:10:32;;;;;;;;;;;19.50;40.70;;;;;;491763;240;1495;-75
2020/12/01 05:12:34;;;;;;;;;;;19.50;40.50;;;;;;491563;240;1022;-75
2020/12/01 05:14:34;;;;;;;;;;;19.50;40.50;;;;;;491562;240;1337;-75
2020/12/01 05:16:36;;;;;;;;;;;19.60;40.50;;;;;;491553;240;2192;-75
2020/12/01 05:18:37;;;;;;;;;;;19.60;40.50;;;;;;491631;240;1156;-75
2020/12/01 05:20:38;;;;;;;;;;;19.60;40.60;;;;;;491615;240;972;-75
2020/12/01 05:22:39;;;;;;;;;;;19.60;40.70;;;;;;491600;240;1123;-76
2020/12/01 05:24:41;;;;;;;;;;;19.50;40.60;;;;;;491555;240;1028;-75
2020/12/01 05:26:42;;;;;;;;;;;19.60;40.20;;;;;;491493;240;971;-75
2020/12/01 05:28:43;;;;;;;;;;;19.50;40.80;;;;;;491467;240;938;-75
2020/12/01 05:30:45;;;;;;;;;;;19.50;40.90;;;;;;491454;240;1051;-75
2020/12/01 05:32:46;;;;;;;;;;;19.50;40.70;;;;;;491420;240;1057;-75
2020/12/01 05:34:47;;;;;;;;;;;19.50;40.70;;;;;;491416;240;1233;-75
2020/12/01 05:36:48;;;;;;;;;;;19.50;40.80;;;;;;491423;240;2401;-75
2020/12/01 05:38:50;;;;;;;;;;;19.60;40.70;;;;;;491514;240;957;-75
2020/12/01 05:40:51;;;;;;;;;;;19.50;40.60;;;;;;491508;240;1102;-75
2020/12/01 05:42:52;;;;;;;;;;;19.60;40.70;;;;;;491493;240;960;-76
2020/12/01 05:44:54;;;;;;;;;;;19.50;40.60;;;;;;491428;240;1113;-75
2020/12/01 05:46:55;;;;;;;;;;;19.60;40.70;;;;;;491359;240;993;-75
2020/12/01 05:48:57;;;;;;;;;;;19.50;40.70;;;;;;491368;240;1147;-75
2020/12/01 05:50:58;;;;;;;;;;;19.50;40.70;;;;;;491446;240;1030;-75
2020/12/01 05:52:59;;;;;;;;;;;19.60;40.60;;;;;;491430;240;1146;-75
2020/12/01 05:55:01;;;;;;;;;;;19.60;40.50;;;;;;491520;240;1269;-75
2020/12/01 05:57:02;;;;;;;;;;;19.60;40.60;;;;;;491421;240;2216;-76
2020/12/01 05:59:03;;;;;;;;;;;19.60;39.90;;;;;;491443;240;943;-76
2020/12/01 06:01:05;;;;;;;;;;;19.60;40.80;;;;;;491383;240;1022;-76
2020/12/01 06:03:06;;;;;;;;;;;19.50;40.70;;;;;;491392;240;970;-75
2020/12/01 06:05:07;;;;;;;;;;;19.50;40.70;;;;;;491472;240;1228;-75
2020/12/01 06:07:08;;;;;;;;;;;19.50;40.70;;;;;;491473;240;979;-76
2020/12/01 06:09:10;;;;;;;;;;;19.60;40.60;;;;;;491360;240;1032;-75
2020/12/01 06:11:11;;;;;;;;;;;19.70;40.50;;;;;;491360;240;962;-75
2020/12/01 06:13:12;;;;;;;;;;;19.60;40.40;;;;;;491365;240;989;-75
2020/12/01 06:15:14;;;;;;;;;;;19.60;40.60;;;;;;491335;240;936;-75
2020/12/01 06:17:15;;;;;;;;;;;19.60;40.60;;;;;;491371;240;2195;-75
2020/12/01 06:19:16;;;;;;;;;;;19.70;40.40;;;;;;491400;240;1150;-75
2020/12/01 06:21:17;;;;;;;;;;;19.60;40.40;;;;;;491434;240;1024;-75
2020/12/01 06:23:19;;;;;;;;;;;19.70;40.50;;;;;;491388;240;1008;-76
2020/12/01 06:25:20;;;;;;;;;;;19.60;40.40;;;;;;491419;240;956;-76
2020/12/01 06:27:21;;;;;;;;;;;19.60;39.50;;;;;;491375;240;1119;-75
2020/12/01 06:29:23;;;;;;;;;;;19.60;40.50;;;;;;491368;240;960;-75
2020/12/01 06:31:24;;;;;;;;;;;19.60;40.50;;;;;;491329;240;972;-76
2020/12/01 06:33:25;;;;;;;;;;;19.60;40.60;;;;;;491335;240;969;-75
2020/12/01 06:35:26;;;;;;;;;;;19.60;40.40;;;;;;491316;240;1276;-75
2020/12/01 06:37:28;;;;;;;;;;;19.60;40.50;;;;;;491347;240;2168;-75
2020/12/01 06:39:30;;;;;;;;;;;19.60;40.40;;;;;;491284;240;989;-75
2020/12/01 06:41:30;;;;;;;;;;;19.60;40.40;;;;;;491256;240;1345;-75
2020/12/01 06:43:31;;;;;;;;;;;19.60;40.50;;;;;;491150;240;1043;-75
2020/12/01 06:45:33;;;;;;;;;;;19.60;40.40;;;;;;491126;240;994;-75
2020/12/01 06:47:34;;;;;;;;;;;19.70;40.40;;;;;;491026;240;1280;-74
2020/12/01 06:49:35;;;;;;;;;;;19.70;40.30;;;;;;491082;240;1155;-75
2020/12/01 06:51:37;;;;;;;;;;;19.70;40.30;;;;;;490961;240;1090;-75
2020/12/01 06:53:38;;;;;;;;;;;19.70;40.20;;;;;;491221;240;1127;-75
2020/12/01 06:55:39;;;;;;;;;;;19.70;40.30;;;;;;491127;240;1088;-75
2020/12/01 06:57:40;;;;;;;;;;;19.70;40.20;;;;;;491103;240;2184;-75
2020/12/01 06:59:42;;;;;;;;;;;19.80;40.20;;;;;;491221;240;1070;-75
2020/12/01 07:01:43;;;;;;;;;;;19.70;39.60;;;;;;491191;240;1036;-75
2020/12/01 07:03:44;;;;;;;;;;;19.70;40.10;;;;;;491027;240;1150;-74
2020/12/01 07:05:46;;;;;;;;;;;19.70;40.30;;;;;;490987;240;1150;-75
2020/12/01 07:07:47;;;;;;;;;;;19.70;40.00;;;;;;491051;240;1201;-75
2020/12/01 07:09:48;;;;;;;;;;;19.70;40.20;;;;;;491070;240;1006;-75
2020/12/01 07:11:49;;;;;;;;;;;19.70;40.20;;;;;;491162;240;1171;-75
2020/12/01 07:13:51;;;;;;;;;;;19.70;40.20;;;;;;491071;240;998;-75
2020/12/01 07:15:52;;;;;;;;;;;19.70;40.10;;;;;;491115;240;986;-75
2020/12/01 07:17:53;;;;;;;;;;;19.70;40.10;;;;;;491158;240;2191;-75
2020/12/01 07:19:55;;;;;;;;;;;19.70;40.10;;;;;;491031;240;1161;-74
2020/12/01 07:21:56;;;;;;;;;;;19.70;40.10;;;;;;491123;240;1193;-74
2020/12/01 07:23:57;;;;;;;;;;;19.70;40.10;;;;;;491139;240;998;-74
2020/12/01 07:25:59;;;;;;;;;;;19.70;40.20;;;;;;491077;240;1051;-74
2020/12/01 07:28:00;;;;;;;;;;;19.70;40.20;;;;;;490960;240;962;-74
2020/12/01 07:30:01;;;;;;;;;;;19.70;40.30;;;;;;490763;240;991;-74
2020/12/01 07:32:02;;;;;;;;;;;19.70;40.50;;;;;;490991;240;980;-75
2020/12/01 07:34:04;;;;;;;;;;;19.60;40.40;;;;;;491146;240;1340;-75
2020/12/01 07:36:05;;;;;;;;;;;19.60;40.60;;;;;;490705;240;1215;-75
2020/12/01 07:38:06;;;;;;;;;;;19.70;40.30;;;;;;490887;240;2172;-75
2020/12/01 07:40:08;;;;;;;;;;;19.60;40.40;;;;;;490761;240;978;-75
2020/12/01 07:42:09;;;;;;;;;;;19.70;40.60;;;;;;490727;240;1050;-75
2020/12/01 07:44:10;;;;;;;;;;;19.70;40.60;;;;;;490926;240;992;-75
2020/12/01 07:46:11;;;;;;;;;;;19.60;40.70;;;;;;490956;240;1074;-75
2020/12/01 07:48:13;;;;;;;;;;;19.60;40.70;;;;;;491012;240;1062;-75
2020/12/01 07:50:14;;;;;;;;;;;19.60;40.80;;;;;;490997;240;1295;-75
2020/12/01 07:52:15;;;;;;;;;;;19.60;40.80;;;;;;491012;240;1083;-76
2020/12/01 07:54:16;;;;;;;;;;;19.60;40.90;;;;;;491050;240;985;-75
2020/12/01 07:56:18;;;;;;;;;;;19.60;41.00;;;;;;490966;240;1209;-75
2020/12/01 07:58:19;;;;;;;;;;;19.60;41.00;;;;;;491044;240;2188;-75
2020/12/01 08:00:20;;;;;;;;;;;19.60;41.00;;;;;;491001;240;971;-75
2020/12/01 08:02:22;;;;;;;;;;;19.60;41.00;;;;;;491037;240;1102;-75
2020/12/01 08:04:23;;;;;;;;;;;19.60;41.00;;;;;;490907;240;975;-75
2020/12/01 08:06:24;;;;;;;;;;;19.60;41.00;;;;;;490882;240;1167;-75
2020/12/01 08:08:25;;;;;;;;;;;19.70;41.00;;;;;;490900;240;1145;-75
2020/12/01 08:10:29;;;;;;;;;;;19.70;40.00;;;;;;490986;240;1031;-75
2020/12/01 08:12:28;;;;;;;;;;;19.60;41.00;;;;;;490614;243;1232;-75
2020/12/01 08:14:29;;;;;;;;;;;19.60;41.10;;;;;;490785;240;984;-75
2020/12/01 08:16:31;;;;;;;;;;;19.70;41.10;;;;;;490666;240;976;-75
2020/12/01 08:18:32;;;;;;;;;;;19.70;40.80;;;;;;490759;240;2196;-75
2020/12/01 08:20:33;;;;;;;;;;;19.70;40.90;;;;;;490764;240;1434;-75
2020/12/01 08:22:34;;;;;;;;;;;19.70;40.90;;;;;;490755;240;1018;-75
2020/12/01 08:24:36;;;;;;;;;;;19.70;41.00;;;;;;490716;240;1293;-75
2020/12/01 08:26:37;;;;;;;;;;;19.70;40.90;;;;;;490710;240;989;-75
2020/12/01 08:28:38;;;;;;;;;;;19.70;40.90;;;;;;490881;240;1048;-75
2020/12/01 08:30:40;;;;;;;;;;;19.70;40.80;;;;;;490908;240;980;-75
2020/12/01 08:32:41;;;;;;;;;;;19.80;40.80;;;;;;490805;240;1029;-76
2020/12/01 08:34:44;;;;;;;;;;;19.80;40.70;;;;;;490693;240;994;-75
2020/12/01 08:36:43;;;;;;;;;;;19.80;40.80;;;;;;490818;240;1411;-75
2020/12/01 08:38:45;;;;;;;;;;;19.80;40.80;;;;;;490846;240;2193;-75
2020/12/01 08:40:46;;;;;;;;;;;19.80;40.80;;;;;;490855;240;1370;-76
2020/12/01 08:42:48;;;;;;;;;;;19.80;39.90;;;;;;490907;240;1011;-75
2020/12/01 08:44:49;;;;;;;;;;;19.80;40.70;;;;;;490997;240;1017;-75
2020/12/01 08:46:50;;;;;;;;;;;19.80;40.80;;;;;;491053;240;1008;-76
2020/12/01 08:48:53;;;;;;;;;;;19.80;40.70;;;;;;490775;240;987;-75
2020/12/01 08:50:53;;;;;;;;;;;19.80;40.60;;;;;;490760;240;1392;-75
2020/12/01 08:52:54;;;;;;;;;;;19.80;40.60;;;;;;490752;240;1030;-75
2020/12/01 08:54:55;;;;;;;;;;;19.80;40.80;;;;;;490845;240;1128;-75
2020/12/01 08:56:57;;;;;;;;;;;19.80;40.80;;;;;;490705;240;1177;-75
2020/12/01 08:58:58;;;;;;;;;;;19.80;40.70;;;;;;490765;240;2208;-75
2020/12/01 09:00:59;;;;;;;;;;;19.80;40.70;;;;;;490782;240;1158;-75
2020/12/01 09:03:01;;;;;;;;;;;19.80;40.60;;;;;;490787;240;1078;-75
2020/12/01 09:05:02;;;;;;;;;;;19.80;40.50;;;;;;490794;240;1178;-75
2020/12/01 09:07:03;;;;;;;;;;;19.80;40.60;;;;;;490839;240;1420;-75
2020/12/01 09:09:06;;;;;;;;;;;19.90;40.50;;;;;;490738;240;1163;-76
2020/12/01 09:11:12;;;;;;;;;;;19.90;40.50;;;;;;490703;240;1325;-75
2020/12/01 09:13:15;;;;;;;;;;;19.90;40.40;;;;;;490791;240;1338;-75
2020/12/01 09:15:17;;;;;;;;;;;19.90;40.50;;;;;;490850;240;1283;-75
2020/12/01 09:17:20;;;;;;;;;;;19.90;39.70;;;;;;490865;240;1388;-75
2020/12/01 09:19:48;;;;;;;;;;;19.80;40.60;;;;;;490985;240;2191;-75
2020/12/01 09:21:54;;;;;;;;;;;19.90;40.50;;;;;;491114;240;1539;-75
2020/12/01 09:23:54;;;;;;;;;;;19.90;40.50;;;;;;490696;240;1318;-75
2020/12/01 09:25:56;;;;;;;;;;;19.90;40.50;;;;;;490540;240;1051;-75
2020/12/01 09:27:57;;;;;;;;;;;19.90;40.60;;;;;;490544;240;1193;-75
2020/12/01 09:29:58;;;;;;;;;;;19.90;40.50;;;;;;490604;240;997;-75
2020/12/01 09:32:00;;;;;;;;;;;19.90;40.50;;;;;;490616;240;1140;-76
2020/12/01 09:34:01;;;;;;;;;;;19.90;40.40;;;;;;490824;242;1021;-76
2020/12/01 09:36:02;;;;;;;;;;;19.90;40.50;;;;;;490933;240;974;-75
2020/12/01 09:38:04;;;;;;;;;;;19.90;40.40;;;;;;490893;240;2196;-75
2020/12/01 09:40:05;;;;;;;;;;;19.90;40.40;;;;;;490963;240;966;-75
2020/12/01 09:42:11;;;;;;;;;;;19.90;40.40;;;;;;490814;240;1063;-75
2020/12/01 09:44:21;;;;;;;;;;;19.90;40.40;;;;;;491002;240;1502;-75
2020/12/01 09:46:14;;;;;;;;;;;20.00;40.10;;;;;;490744;240;1406;-76
2020/12/01 09:48:17;;;;;;;;;;;19.90;40.40;;;;;;490912;240;1275;-75
2020/12/01 09:50:15;;;;;;;;;;;19.90;40.60;;;;;;490943;240;1407;-77
2020/12/01 09:52:21;;;;;;;;;;;19.90;40.50;;;;;;490850;240;1181;-75
2020/12/01 09:54:24;;;;;;;;;;;19.90;40.50;;;;;;490959;240;1679;-75
2020/12/01 09:56:30;;;;;;;;;;;19.90;40.50;;;;;;490838;240;1304;-75
2020/12/01 10:07:22;;;;;;;;;;;19.90;40.40;;;;;;490750;242;1016;-75
2020/12/01 10:08:06;;;;;;;;;;;19.90;40.50;;;;;;490971;240;1163;-75
2020/12/01 10:10:19;;;;;;;;;;;19.90;40.50;;;;;;490859;240;1317;-75
2020/12/01 10:12:18;;;;;;;;;;;19.90;40.40;;;;;;490942;240;1484;-75
2020/12/01 10:17:26;;;;;;;;;;;20.00;40.40;;;;;;486352;243;1239;-76
2020/12/01 10:19:25;;;;;;;;;;;20.00;40.40;;;;;;491113;240;2191;-76
2020/12/01 10:35:21;;;;;;;;;;;20.00;40.40;;;;;;490652;242;1119;-75
2020/12/01 10:37:21;;;;;;;;;;;20.00;40.30;;;;;;490559;240;1295;-75
2020/12/01 10:39:22;;;;;;;;;;;19.90;40.50;;;;;;490782;240;2187;-75
2020/12/01 10:41:23;;;;;;;;;;;20.00;40.40;;;;;;490870;240;1215;-75
2020/12/01 10:43:25;;;;;;;;;;;20.00;40.30;;;;;;490886;240;1006;-76
2020/12/01 10:45:26;;;;;;;;;;;20.00;40.20;;;;;;490761;240;1046;-75
2020/12/01 10:47:27;;;;;;;;;;;20.00;40.20;;;;;;490725;240;1032;-75
2020/12/01 10:49:28;;;;;;;;;;;20.10;40.10;;;;;;490637;240;1039;-75
2020/12/01 10:51:32;;;;;;;;;;;20.00;40.20;;;;;;490617;240;1170;-75
2020/12/01 10:53:31;;;;;;;;;;;20.00;40.20;;;;;;490855;240;1543;-75
2020/12/01 10:55:33;;;;;;;;;;;20.00;40.20;;;;;;490923;240;1028;-75
2020/12/01 10:57:35;;;;;;;;;;;20.00;40.30;;;;;;490897;240;1129;-76
2020/12/01 10:59:37;;;;;;;;;;;19.90;40.30;;;;;;490912;240;2200;-75
2020/12/01 11:01:38;;;;;;;;;;;20.00;40.30;;;;;;490865;240;1032;-76
2020/12/01 11:03:39;;;;;;;;;;;20.00;40.20;;;;;;490893;240;976;-75
2020/12/01 11:05:40;;;;;;;;;;;20.00;40.20;;;;;;490785;240;969;-75
2020/12/01 11:07:42;;;;;;;;;;;20.00;39.60;;;;;;490668;240;1152;-75
2020/12/01 11:09:43;;;;;;;;;;;20.00;40.20;;;;;;490666;240;1091;-75
2020/12/01 11:11:44;;;;;;;;;;;20.00;40.20;;;;;;490487;240;992;-76
2020/12/01 11:13:46;;;;;;;;;;;20.00;40.10;;;;;;490725;240;1043;-75
2020/12/01 11:15:47;;;;;;;;;;;20.10;40.10;;;;;;490715;240;1049;-75
2020/12/01 11:17:48;;;;;;;;;;;20.10;40.20;;;;;;490670;240;982;-75
2020/12/01 11:19:50;;;;;;;;;;;20.00;40.20;;;;;;490824;240;2188;-75
2020/12/01 11:21:51;;;;;;;;;;;20.00;40.30;;;;;;490835;240;997;-75
2020/12/01 11:23:52;;;;;;;;;;;20.10;40.10;;;;;;490873;240;1216;-75
2020/12/01 11:25:53;;;;;;;;;;;20.10;40.00;;;;;;490880;240;1093;-75
2020/12/01 11:27:55;;;;;;;;;;;20.10;40.00;;;;;;490884;240;994;-76
2020/12/01 11:29:56;;;;;;;;;;;20.10;40.00;;;;;;490702;240;1091;-75
2020/12/01 11:31:57;;;;;;;;;;;20.00;40.20;;;;;;490649;240;984;-76
2020/12/01 11:33:58;;;;;;;;;;;20.00;40.20;;;;;;490828;240;1048;-75
2020/12/01 11:36:01;;;;;;;;;;;19.90;40.20;;;;;;490796;240;1047;-76
2020/12/01 11:38:02;;;;;;;;;;;19.90;40.30;;;;;;490770;240;1133;-76
2020/12/01 11:40:04;;;;;;;;;;;20.00;40.20;;;;;;490679;240;2184;-76
2020/12/01 11:42:05;;;;;;;;;;;19.90;40.20;;;;;;490705;240;1035;-76
2020/12/01 11:44:06;;;;;;;;;;;20.00;40.20;;;;;;490911;240;1178;-75
2020/12/01 11:46:08;;;;;;;;;;;20.10;40.10;;;;;;490879;240;953;-76
2020/12/01 11:48:09;;;;;;;;;;;20.10;40.10;;;;;;490782;242;1384;-76
2020/12/01 11:50:10;;;;;;;;;;;20.10;40.00;;;;;;490880;240;1115;-76
2020/12/01 11:52:11;;;;;;;;;;;20.10;39.40;;;;;;490903;240;1219;-75
2020/12/01 11:54:13;;;;;;;;;;;20.10;40.20;;;;;;490926;240;1138;-75
2020/12/01 11:56:14;;;;;;;;;;;20.00;40.20;;;;;;490749;240;1066;-75
2020/12/01 11:58:15;;;;;;;;;;;20.00;40.30;;;;;;490756;240;2200;-75
2020/12/01 12:00:17;;;;;;;;;;;20.00;40.30;;;;;;490719;240;1045;-75
2020/12/01 12:02:18;;;;;;;;;;;20.00;40.30;;;;;;490741;240;1272;-75
2020/12/01 12:04:19;;;;;;;;;;;20.00;40.30;;;;;;490631;240;1165;-75
2020/12/01 12:06:20;;;;;;;;;;;20.00;40.50;;;;;;490599;240;1302;-75
2020/12/01 12:08:22;;;;;;;;;;;20.10;40.40;;;;;;490702;240;1126;-75
2020/12/01 12:10:23;;;;;;;;;;;20.10;40.10;;;;;;490874;240;978;-75
2020/12/01 12:12:24;;;;;;;;;;;20.10;40.00;;;;;;490801;240;1005;-75
2020/12/01 12:14:26;;;;;;;;;;;20.10;40.10;;;;;;490751;240;1019;-74
2020/12/01 12:16:27;;;;;;;;;;;20.10;40.20;;;;;;490595;240;957;-74
2020/12/01 12:18:28;;;;;;;;;;;20.10;40.30;;;;;;490811;240;2188;-75
2020/12/01 12:20:30;;;;;;;;;;;20.10;40.20;;;;;;490636;240;991;-76
2020/12/01 12:22:31;;;;;;;;;;;20.10;40.20;;;;;;490588;240;1006;-75
2020/12/01 12:24:32;;;;;;;;;;;20.00;40.20;;;;;;490995;240;1183;-74